createdAt,value
2017-03-18T00:00:10.020Z,0
2017-03-18T00:00:42.361Z,0
2017-03-18T00:01:15.348Z,0
2017-03-18T00:01:47.596Z,0
2017-03-18T00:02:19.856Z,0
2017-03-18T00:02:52.100Z,0
2017-03-18T00:03:24.339Z,0
2017-03-18T00:03:56.599Z,0
2017-03-18T00:04:28.876Z,0
2017-03-18T00:05:01.140Z,0
2017-03-18T00:05:33.387Z,0
2017-03-18T00:06:05.649Z,0
2017-03-18T00:06:37.938Z,0
2017-03-18T00:07:10.207Z,0
2017-03-18T00:07:42.443Z,0
2017-03-18T00:08:14.699Z,0
2017-03-18T00:08:47.006Z,0
2017-03-18T00:09:19.264Z,0
2017-03-18T00:09:51.525Z,0
2017-03-18T00:10:23.796Z,0
2017-03-18T00:10:56.037Z,0
2017-03-18T00:11:29.196Z,0
2017-03-18T00:12:01.495Z,0
2017-03-18T00:12:33.808Z,0
2017-03-18T00:13:06.135Z,0
2017-03-18T00:13:38.488Z,0
2017-03-18T00:14:10.802Z,0
2017-03-18T00:14:43.116Z,0
2017-03-18T00:15:15.431Z,0
2017-03-18T00:15:47.739Z,0
2017-03-18T00:16:20.050Z,0
2017-03-18T00:16:52.388Z,0
2017-03-18T00:17:24.709Z,0
2017-03-18T00:17:57.020Z,0
2017-03-18T00:18:29.357Z,0
2017-03-18T00:19:01.677Z,0
2017-03-18T00:19:33.998Z,0
2017-03-18T00:20:06.319Z,0
2017-03-18T00:20:38.690Z,0
2017-03-18T00:21:10.991Z,0
2017-03-18T00:21:43.313Z,0
2017-03-18T00:22:15.639Z,0
2017-03-18T00:22:47.963Z,0
2017-03-18T00:23:20.287Z,0
2017-03-18T00:23:52.618Z,0
2017-03-18T00:24:24.937Z,0
2017-03-18T00:24:57.271Z,0
2017-03-18T00:25:29.585Z,0
2017-03-18T00:26:01.898Z,0
2017-03-18T00:26:34.229Z,0
2017-03-18T00:27:06.550Z,0
2017-03-18T00:27:38.887Z,0
2017-03-18T00:28:11.215Z,0
2017-03-18T00:28:43.600Z,0
2017-03-18T00:29:15.928Z,0
2017-03-18T00:29:48.239Z,0
2017-03-18T00:30:20.544Z,0
2017-03-18T00:30:52.846Z,0
2017-03-18T00:31:25.141Z,0
2017-03-18T00:31:57.427Z,0
2017-03-18T00:32:29.685Z,0
2017-03-18T00:33:01.951Z,0
2017-03-18T00:33:34.200Z,0
2017-03-18T00:34:06.447Z,0
2017-03-18T00:34:39.364Z,0
2017-03-18T00:35:11.624Z,0
2017-03-18T00:35:43.895Z,0
2017-03-18T00:36:16.162Z,0
2017-03-18T00:36:49.356Z,0
2017-03-18T00:37:21.620Z,0
2017-03-18T00:37:53.890Z,0
2017-03-18T00:38:26.160Z,0
2017-03-18T00:38:58.425Z,0
2017-03-18T00:39:30.672Z,0
2017-03-18T00:40:03.799Z,0
2017-03-18T00:40:36.721Z,0
2017-03-18T00:41:08.980Z,0
2017-03-18T00:41:41.222Z,0
2017-03-18T00:42:13.485Z,0
2017-03-18T00:42:46.359Z,0
2017-03-18T00:43:18.653Z,0
2017-03-18T00:43:50.925Z,0
2017-03-18T00:44:23.204Z,0
2017-03-18T00:44:55.459Z,0
2017-03-18T00:45:27.842Z,0
2017-03-18T00:46:00.100Z,0
2017-03-18T00:46:32.373Z,0
2017-03-18T00:47:04.625Z,0
2017-03-18T00:47:36.875Z,0
2017-03-18T00:48:09.145Z,0
2017-03-18T00:48:41.413Z,0
2017-03-18T00:49:14.275Z,0
2017-03-18T00:49:46.527Z,0
2017-03-18T00:50:18.784Z,0
2017-03-18T00:50:51.027Z,0
2017-03-18T00:51:23.286Z,0
2017-03-18T00:51:55.537Z,0
2017-03-18T00:52:27.797Z,0
2017-03-18T00:53:00.070Z,0
2017-03-18T00:53:32.346Z,0
2017-03-18T00:54:04.682Z,0
2017-03-18T00:54:36.935Z,0
2017-03-18T00:55:09.219Z,0
2017-03-18T00:55:41.454Z,0
2017-03-18T00:56:13.711Z,0
2017-03-18T00:56:45.983Z,0
2017-03-18T00:57:18.233Z,0
2017-03-18T00:57:50.561Z,0
2017-03-18T00:58:22.816Z,0
2017-03-18T00:58:55.076Z,0
2017-03-18T00:59:27.320Z,0
2017-03-18T00:59:59.602Z,0
2017-03-18T01:00:31.886Z,0
2017-03-18T01:01:04.116Z,0
2017-03-18T01:01:36.341Z,0
2017-03-18T01:02:08.611Z,0
2017-03-18T01:02:40.899Z,0
2017-03-18T01:03:13.813Z,0
2017-03-18T01:03:46.076Z,0
2017-03-18T01:04:18.349Z,0
2017-03-18T01:04:50.624Z,0
2017-03-18T01:05:22.897Z,0
2017-03-18T01:05:55.172Z,0
2017-03-18T01:06:27.432Z,0
2017-03-18T01:06:59.682Z,0
2017-03-18T01:07:31.934Z,0
2017-03-18T01:08:04.201Z,0
2017-03-18T01:08:36.461Z,0
2017-03-18T01:09:08.722Z,0
2017-03-18T01:09:40.989Z,0
2017-03-18T01:10:13.252Z,0
2017-03-18T01:10:45.515Z,0
2017-03-18T01:11:17.864Z,0
2017-03-18T01:11:50.175Z,0
2017-03-18T01:12:22.469Z,0
2017-03-18T01:12:54.790Z,0
2017-03-18T01:13:27.106Z,0
2017-03-18T01:13:59.456Z,0
2017-03-18T01:14:31.762Z,0
2017-03-18T01:15:04.126Z,0
2017-03-18T01:15:36.430Z,0
2017-03-18T01:16:08.755Z,0
2017-03-18T01:16:41.081Z,0
2017-03-18T01:17:13.408Z,0
2017-03-18T01:17:45.730Z,0
2017-03-18T01:18:18.045Z,0
2017-03-18T01:18:50.393Z,0
2017-03-18T01:19:22.747Z,0
2017-03-18T01:19:55.073Z,0
2017-03-18T01:20:27.394Z,0
2017-03-18T01:20:59.706Z,0
2017-03-18T01:21:32.002Z,0
2017-03-18T01:22:04.324Z,0
2017-03-18T01:22:36.627Z,0
2017-03-18T01:23:08.970Z,0
2017-03-18T01:23:41.304Z,0
2017-03-18T01:24:13.635Z,0
2017-03-18T01:24:45.956Z,0
2017-03-18T01:25:18.275Z,0
2017-03-18T01:25:50.591Z,0
2017-03-18T01:26:22.927Z,0
2017-03-18T01:26:55.234Z,0
2017-03-18T01:27:27.559Z,0
2017-03-18T01:27:59.869Z,0
2017-03-18T01:28:32.192Z,0
2017-03-18T01:29:04.532Z,0
2017-03-18T01:29:36.844Z,0
2017-03-18T01:30:09.166Z,0
2017-03-18T01:30:41.480Z,0
2017-03-18T01:31:13.782Z,0
2017-03-18T01:31:46.095Z,0
2017-03-18T01:32:18.425Z,0
2017-03-18T01:32:50.752Z,0
2017-03-18T01:33:23.066Z,0
2017-03-18T01:33:55.436Z,0
2017-03-18T01:34:27.764Z,0
2017-03-18T01:35:00.098Z,0
2017-03-18T01:35:32.440Z,0
2017-03-18T01:36:04.768Z,0
2017-03-18T01:36:37.087Z,0
2017-03-18T01:37:09.397Z,0
2017-03-18T01:37:41.715Z,0
2017-03-18T01:38:14.033Z,0
2017-03-18T01:38:46.382Z,0
2017-03-18T01:39:18.712Z,0
2017-03-18T01:39:51.053Z,0
2017-03-18T01:40:23.370Z,0
2017-03-18T01:40:55.701Z,0
2017-03-18T01:41:28.015Z,0
2017-03-18T01:42:00.290Z,0
2017-03-18T01:42:32.548Z,0
2017-03-18T01:43:04.816Z,0
2017-03-18T01:43:37.080Z,0
2017-03-18T01:44:09.335Z,0
2017-03-18T01:44:41.593Z,0
2017-03-18T01:45:14.709Z,0
2017-03-18T01:45:46.959Z,0
2017-03-18T01:46:19.841Z,0
2017-03-18T01:46:52.105Z,0
2017-03-18T01:47:24.344Z,0
2017-03-18T01:47:56.618Z,0
2017-03-18T01:48:28.866Z,0
2017-03-18T01:49:01.130Z,0
2017-03-18T01:49:33.430Z,0
2017-03-18T01:50:05.692Z,0
2017-03-18T01:50:37.933Z,0
2017-03-18T01:51:10.179Z,0
2017-03-18T01:51:42.445Z,0
2017-03-18T01:52:14.876Z,0
2017-03-18T01:52:47.145Z,0
2017-03-18T01:53:19.415Z,0
2017-03-18T01:53:51.684Z,0
2017-03-18T01:54:23.943Z,0
2017-03-18T01:54:56.394Z,0
2017-03-18T01:55:28.646Z,0
2017-03-18T01:56:00.971Z,0
2017-03-18T01:56:33.898Z,0
2017-03-18T01:57:06.174Z,0
2017-03-18T01:57:38.425Z,0
2017-03-18T01:58:10.688Z,0
2017-03-18T01:58:42.989Z,0
2017-03-18T01:59:15.244Z,0
2017-03-18T01:59:47.504Z,0
2017-03-18T02:00:19.767Z,0
2017-03-18T02:00:52.020Z,0
2017-03-18T02:01:24.274Z,0
2017-03-18T02:01:56.567Z,0
2017-03-18T02:02:28.885Z,0
2017-03-18T02:03:01.212Z,0
2017-03-18T02:03:33.517Z,0
2017-03-18T02:04:05.835Z,0
2017-03-18T02:04:38.146Z,0
2017-03-18T02:05:10.464Z,0
2017-03-18T02:05:42.774Z,0
2017-03-18T02:06:15.081Z,0
2017-03-18T02:06:47.415Z,0
2017-03-18T02:07:19.731Z,0
2017-03-18T02:07:52.057Z,0
2017-03-18T02:08:24.382Z,0
2017-03-18T02:08:56.693Z,0
2017-03-18T02:09:29.010Z,0
2017-03-18T02:10:01.331Z,0
2017-03-18T02:10:33.652Z,0
2017-03-18T02:11:05.968Z,0
2017-03-18T02:11:38.290Z,0
2017-03-18T02:12:10.588Z,0
2017-03-18T02:12:42.839Z,0
2017-03-18T02:13:15.906Z,0
2017-03-18T02:13:48.191Z,0
2017-03-18T02:14:20.456Z,0
2017-03-18T02:14:52.713Z,0
2017-03-18T02:15:25.049Z,0
2017-03-18T02:15:57.311Z,0
2017-03-18T02:16:29.571Z,0
2017-03-18T02:17:01.821Z,0
2017-03-18T02:17:34.088Z,0
2017-03-18T02:18:06.345Z,0
2017-03-18T02:18:39.352Z,0
2017-03-18T02:19:11.606Z,0
2017-03-18T02:19:43.870Z,0
2017-03-18T02:20:16.106Z,0
2017-03-18T02:20:48.381Z,0
2017-03-18T02:21:20.636Z,0
2017-03-18T02:21:53.405Z,0
2017-03-18T02:22:25.661Z,0
2017-03-18T02:22:57.911Z,0
2017-03-18T02:23:30.155Z,0
2017-03-18T02:24:02.424Z,0
2017-03-18T02:24:35.401Z,0
2017-03-18T02:25:07.682Z,0
2017-03-18T02:25:39.934Z,0
2017-03-18T02:26:12.196Z,0
2017-03-18T02:26:44.491Z,0
2017-03-18T02:27:16.735Z,0
2017-03-18T02:27:49.007Z,0
2017-03-18T02:28:23.460Z,0
2017-03-18T02:28:55.736Z,0
2017-03-18T02:29:28.013Z,0
2017-03-18T02:30:00.863Z,0
2017-03-18T02:30:33.118Z,0
2017-03-18T02:31:05.369Z,0
2017-03-18T02:31:37.628Z,0
2017-03-18T02:32:09.929Z,0
2017-03-18T02:32:42.255Z,0
2017-03-18T02:33:14.565Z,0
2017-03-18T02:33:46.891Z,0
2017-03-18T02:34:19.221Z,0
2017-03-18T02:34:51.539Z,0
2017-03-18T02:35:23.849Z,0
2017-03-18T02:35:56.165Z,0
2017-03-18T02:36:28.488Z,0
2017-03-18T02:37:00.806Z,0
2017-03-18T02:37:33.162Z,0
2017-03-18T02:38:05.491Z,0
2017-03-18T02:38:37.838Z,0
2017-03-18T02:39:10.202Z,0
2017-03-18T02:39:42.522Z,0
2017-03-18T02:40:14.825Z,0
2017-03-18T02:40:47.134Z,0
2017-03-18T02:41:19.455Z,0
2017-03-18T02:41:51.720Z,0
2017-03-18T02:42:24.745Z,0
2017-03-18T02:42:57.010Z,0
2017-03-18T02:43:29.281Z,0
2017-03-18T02:44:02.369Z,0
2017-03-18T02:44:34.626Z,0
2017-03-18T02:45:06.970Z,0
2017-03-18T02:45:39.220Z,0
2017-03-18T02:46:11.502Z,0
2017-03-18T02:46:43.757Z,0
2017-03-18T02:47:16.027Z,0
2017-03-18T02:47:48.383Z,0
2017-03-18T02:48:20.639Z,0
2017-03-18T02:48:52.909Z,0
2017-03-18T02:49:25.171Z,0
2017-03-18T02:49:57.443Z,0
2017-03-18T02:50:29.722Z,0
2017-03-18T02:51:02.009Z,0
2017-03-18T02:51:34.269Z,0
2017-03-18T02:52:06.519Z,0
2017-03-18T02:52:38.817Z,0
2017-03-18T02:53:11.052Z,0
2017-03-18T02:53:43.325Z,0
2017-03-18T02:54:15.584Z,0
2017-03-18T02:54:47.865Z,0
2017-03-18T02:55:20.137Z,0
2017-03-18T02:55:52.394Z,0
2017-03-18T02:56:24.646Z,0
2017-03-18T02:56:57.009Z,0
2017-03-18T02:57:29.265Z,0
2017-03-18T02:58:01.536Z,0
2017-03-18T02:58:33.791Z,0
2017-03-18T02:59:06.762Z,0
2017-03-18T02:59:39.029Z,0
2017-03-18T03:00:11.307Z,0
2017-03-18T03:00:43.570Z,0
2017-03-18T03:01:15.854Z,0
2017-03-18T03:01:48.112Z,0
2017-03-18T03:02:20.914Z,0
2017-03-18T03:02:53.155Z,0
2017-03-18T03:03:25.413Z,0
2017-03-18T03:03:57.758Z,0
2017-03-18T03:04:30.015Z,0
2017-03-18T03:05:02.260Z,0
2017-03-18T03:05:34.511Z,0
2017-03-18T03:06:06.768Z,0
2017-03-18T03:06:39.012Z,0
2017-03-18T03:07:11.285Z,0
2017-03-18T03:07:43.543Z,0
2017-03-18T03:08:15.794Z,0
2017-03-18T03:08:48.978Z,0
2017-03-18T03:09:21.235Z,0
2017-03-18T03:09:53.486Z,0
2017-03-18T03:10:25.749Z,0
2017-03-18T03:10:57.993Z,0
2017-03-18T03:11:30.239Z,0
2017-03-18T03:12:02.482Z,0
2017-03-18T03:12:35.366Z,0
2017-03-18T03:13:07.609Z,0
2017-03-18T03:13:39.858Z,0
2017-03-18T03:14:12.108Z,0
2017-03-18T03:14:44.919Z,0
2017-03-18T03:15:17.183Z,0
2017-03-18T03:15:49.441Z,0
2017-03-18T03:16:21.703Z,0
2017-03-18T03:16:53.982Z,0
2017-03-18T03:17:26.841Z,0
2017-03-18T03:17:59.105Z,0
2017-03-18T03:18:31.353Z,0
2017-03-18T03:19:03.600Z,0
2017-03-18T03:19:35.843Z,0
2017-03-18T03:20:08.101Z,0
2017-03-18T03:20:40.456Z,0
2017-03-18T03:21:12.706Z,0
2017-03-18T03:21:44.960Z,0
2017-03-18T03:22:17.226Z,0
2017-03-18T03:22:49.489Z,0
2017-03-18T03:23:21.747Z,0
2017-03-18T03:23:54.031Z,0
2017-03-18T03:24:26.384Z,0
2017-03-18T03:24:58.643Z,0
2017-03-18T03:25:30.886Z,0
2017-03-18T03:26:03.148Z,0
2017-03-18T03:26:35.429Z,0
2017-03-18T03:27:07.685Z,0
2017-03-18T03:27:39.959Z,0
2017-03-18T03:28:12.220Z,0
2017-03-18T03:28:44.462Z,0
2017-03-18T03:29:16.709Z,0
2017-03-18T03:29:48.965Z,0
2017-03-18T03:30:21.224Z,0
2017-03-18T03:30:54.983Z,0
2017-03-18T03:31:27.244Z,0
2017-03-18T03:31:59.499Z,0
2017-03-18T03:32:31.779Z,0
2017-03-18T03:33:04.117Z,0
2017-03-18T03:33:36.431Z,0
2017-03-18T03:34:08.690Z,0
2017-03-18T03:34:40.941Z,0
2017-03-18T03:35:13.216Z,0
2017-03-18T03:35:46.314Z,0
2017-03-18T03:36:18.570Z,0
2017-03-18T03:36:50.833Z,0
2017-03-18T03:37:23.103Z,0
2017-03-18T03:37:55.372Z,0
2017-03-18T03:38:27.637Z,0
2017-03-18T03:38:59.882Z,0
2017-03-18T03:39:32.203Z,0
2017-03-18T03:40:04.545Z,0
2017-03-18T03:40:36.795Z,0
2017-03-18T03:41:09.041Z,0
2017-03-18T03:41:41.289Z,0
2017-03-18T03:42:13.589Z,0
2017-03-18T03:42:45.915Z,0
2017-03-18T03:43:18.236Z,0
2017-03-18T03:43:50.566Z,0
2017-03-18T03:44:22.886Z,0
2017-03-18T03:44:55.198Z,0
2017-03-18T03:45:27.541Z,0
2017-03-18T03:45:59.859Z,0
2017-03-18T03:46:32.186Z,0
2017-03-18T03:47:04.511Z,0
2017-03-18T03:47:36.847Z,0
2017-03-18T03:48:09.200Z,0
2017-03-18T03:48:41.521Z,0
2017-03-18T03:49:13.941Z,0
2017-03-18T03:49:46.259Z,0
2017-03-18T03:50:18.566Z,0
2017-03-18T03:50:50.887Z,0
2017-03-18T03:51:23.195Z,0
2017-03-18T03:51:56.383Z,0
2017-03-18T03:52:28.644Z,0
2017-03-18T03:53:00.907Z,0
2017-03-18T03:53:33.149Z,0
2017-03-18T03:54:05.399Z,0
2017-03-18T03:54:37.657Z,0
2017-03-18T03:55:09.979Z,0
2017-03-18T03:55:42.318Z,0
2017-03-18T03:56:15.397Z,0
2017-03-18T03:56:47.639Z,0
2017-03-18T03:57:19.913Z,0
2017-03-18T03:57:52.163Z,0
2017-03-18T03:58:25.300Z,0
2017-03-18T03:58:58.352Z,0
2017-03-18T03:59:30.612Z,0
2017-03-18T04:00:02.901Z,0
2017-03-18T04:00:35.142Z,0
2017-03-18T04:01:07.415Z,0
2017-03-18T04:01:39.683Z,0
2017-03-18T04:02:11.987Z,0
2017-03-18T04:02:44.302Z,0
2017-03-18T04:03:16.634Z,0
2017-03-18T04:03:48.953Z,0
2017-03-18T04:04:21.283Z,0
2017-03-18T04:04:53.611Z,0
2017-03-18T04:05:25.929Z,0
2017-03-18T04:05:58.287Z,0
2017-03-18T04:06:30.632Z,0
2017-03-18T04:07:02.956Z,0
2017-03-18T04:07:35.286Z,0
2017-03-18T04:08:07.604Z,0
2017-03-18T04:08:39.927Z,0
2017-03-18T04:09:12.257Z,0
2017-03-18T04:09:44.560Z,0
2017-03-18T04:10:16.863Z,0
2017-03-18T04:10:49.161Z,0
2017-03-18T04:11:21.469Z,0
2017-03-18T04:11:53.717Z,0
2017-03-18T04:12:25.979Z,0
2017-03-18T04:12:58.236Z,0
2017-03-18T04:13:30.484Z,0
2017-03-18T04:14:03.386Z,0
2017-03-18T04:14:36.317Z,0
2017-03-18T04:15:08.554Z,0
2017-03-18T04:15:40.978Z,0
2017-03-18T04:16:13.243Z,0
2017-03-18T04:16:45.499Z,0
2017-03-18T04:17:17.761Z,0
2017-03-18T04:17:50.014Z,0
2017-03-18T04:18:23.032Z,0
2017-03-18T04:18:55.387Z,0
2017-03-18T04:19:27.654Z,0
2017-03-18T04:19:59.928Z,0
2017-03-18T04:20:32.177Z,0
2017-03-18T04:21:04.441Z,0
2017-03-18T04:21:36.698Z,0
2017-03-18T04:22:08.964Z,0
2017-03-18T04:22:41.237Z,0
2017-03-18T04:23:13.502Z,0
2017-03-18T04:23:45.809Z,0
2017-03-18T04:24:18.059Z,0
2017-03-18T04:24:50.314Z,0
2017-03-18T04:25:22.619Z,0
2017-03-18T04:25:54.874Z,0
2017-03-18T04:26:27.129Z,0
2017-03-18T04:26:59.367Z,0
2017-03-18T04:27:31.618Z,0
2017-03-18T04:28:03.857Z,0
2017-03-18T04:28:36.110Z,0
2017-03-18T04:29:08.369Z,0
2017-03-18T04:29:40.635Z,0
2017-03-18T04:30:12.882Z,0
2017-03-18T04:30:45.135Z,0
2017-03-18T04:31:17.408Z,0
2017-03-18T04:31:50.322Z,0
2017-03-18T04:32:22.632Z,0
2017-03-18T04:32:54.966Z,0
2017-03-18T04:33:27.293Z,0
2017-03-18T04:33:59.608Z,0
2017-03-18T04:34:31.925Z,0
2017-03-18T04:35:04.232Z,0
2017-03-18T04:35:36.549Z,0
2017-03-18T04:36:08.865Z,0
2017-03-18T04:36:41.195Z,0
2017-03-18T04:37:13.507Z,0
2017-03-18T04:37:45.834Z,0
2017-03-18T04:38:18.161Z,0
2017-03-18T04:38:50.483Z,0
2017-03-18T04:39:22.804Z,0
2017-03-18T04:39:55.120Z,0
2017-03-18T04:40:27.445Z,0
2017-03-18T04:40:59.769Z,0
2017-03-18T04:41:32.082Z,0
2017-03-18T04:42:04.417Z,0
2017-03-18T04:42:36.735Z,0
2017-03-18T04:43:09.061Z,0
2017-03-18T04:43:41.397Z,0
2017-03-18T04:44:13.726Z,0
2017-03-18T04:44:46.062Z,0
2017-03-18T04:45:18.372Z,0
2017-03-18T04:45:50.693Z,0
2017-03-18T04:46:23.014Z,0
2017-03-18T04:46:55.335Z,0
2017-03-18T04:47:27.649Z,0
2017-03-18T04:47:59.984Z,0
2017-03-18T04:48:32.321Z,0
2017-03-18T04:49:04.641Z,0
2017-03-18T04:49:36.954Z,0
2017-03-18T04:50:09.266Z,0
2017-03-18T04:50:41.571Z,0
2017-03-18T04:51:13.884Z,0
2017-03-18T04:51:46.196Z,0
2017-03-18T04:52:18.524Z,0
2017-03-18T04:52:50.828Z,0
2017-03-18T04:53:23.162Z,0
2017-03-18T04:53:55.476Z,0
2017-03-18T04:54:27.816Z,0
2017-03-18T04:55:00.154Z,0
2017-03-18T04:55:32.497Z,0
2017-03-18T04:56:04.800Z,0
2017-03-18T04:56:37.153Z,0
2017-03-18T04:57:09.463Z,0
2017-03-18T04:57:41.834Z,0
2017-03-18T04:58:14.143Z,0
2017-03-18T04:58:46.483Z,0
2017-03-18T04:59:18.813Z,0
2017-03-18T04:59:51.143Z,0
2017-03-18T05:00:23.477Z,0
2017-03-18T05:00:55.815Z,0
2017-03-18T05:01:28.116Z,0
2017-03-18T05:02:00.964Z,0
2017-03-18T05:02:33.213Z,0
2017-03-18T05:03:05.466Z,0
2017-03-18T05:03:37.745Z,0
2017-03-18T05:04:10.808Z,0
2017-03-18T05:04:43.059Z,0
2017-03-18T05:05:15.311Z,0
2017-03-18T05:05:48.357Z,0
2017-03-18T05:06:20.606Z,0
2017-03-18T05:06:52.854Z,0
2017-03-18T05:07:25.864Z,0
2017-03-18T05:07:58.110Z,0
2017-03-18T05:08:30.384Z,0
2017-03-18T05:09:02.656Z,0
2017-03-18T05:09:34.919Z,0
2017-03-18T05:10:07.185Z,0
2017-03-18T05:10:39.435Z,0
2017-03-18T05:11:11.696Z,0
2017-03-18T05:11:43.963Z,0
2017-03-18T05:12:16.262Z,0
2017-03-18T05:12:48.601Z,0
2017-03-18T05:13:20.921Z,0
2017-03-18T05:13:53.244Z,0
2017-03-18T05:14:25.570Z,0
2017-03-18T05:14:57.888Z,0
2017-03-18T05:15:30.213Z,0
2017-03-18T05:16:02.555Z,0
2017-03-18T05:16:34.880Z,0
2017-03-18T05:17:07.202Z,0
2017-03-18T05:17:39.521Z,0
2017-03-18T05:18:11.854Z,0
2017-03-18T05:18:44.215Z,0
2017-03-18T05:19:16.581Z,0
2017-03-18T05:19:48.899Z,0
2017-03-18T05:20:21.218Z,0
2017-03-18T05:20:53.549Z,0
2017-03-18T05:21:25.871Z,0
2017-03-18T05:21:58.188Z,0
2017-03-18T05:22:30.521Z,0
2017-03-18T05:23:02.848Z,0
2017-03-18T05:23:35.186Z,0
2017-03-18T05:24:07.491Z,0
2017-03-18T05:24:39.837Z,0
2017-03-18T05:25:12.152Z,0
2017-03-18T05:25:44.464Z,0
2017-03-18T05:26:16.777Z,0
2017-03-18T05:26:49.106Z,0
2017-03-18T05:27:21.459Z,0
2017-03-18T05:27:53.773Z,0
2017-03-18T05:28:26.096Z,0
2017-03-18T05:28:58.437Z,0
2017-03-18T05:29:30.787Z,0
2017-03-18T05:30:03.106Z,0
2017-03-18T05:30:35.448Z,0
2017-03-18T05:31:07.782Z,0
2017-03-18T05:31:40.103Z,0
2017-03-18T05:32:12.441Z,0
2017-03-18T05:32:44.783Z,0
2017-03-18T05:33:17.108Z,0
2017-03-18T05:33:49.433Z,0
2017-03-18T05:34:21.753Z,0
2017-03-18T05:34:54.068Z,0
2017-03-18T05:35:26.387Z,0
2017-03-18T05:35:58.678Z,0
2017-03-18T05:36:30.987Z,0
2017-03-18T05:37:03.308Z,0
2017-03-18T05:37:35.633Z,0
2017-03-18T05:38:07.956Z,0
2017-03-18T05:38:40.276Z,0
2017-03-18T05:39:12.595Z,0
2017-03-18T05:39:44.925Z,0
2017-03-18T05:40:17.245Z,0
2017-03-18T05:40:49.599Z,0
2017-03-18T05:41:21.905Z,0
2017-03-18T05:41:54.179Z,0
2017-03-18T05:42:27.098Z,0
2017-03-18T05:42:59.372Z,0
2017-03-18T05:43:31.629Z,0
2017-03-18T05:44:04.835Z,0
2017-03-18T05:44:37.091Z,0
2017-03-18T05:45:10.013Z,0
2017-03-18T05:45:42.255Z,0
2017-03-18T05:46:14.527Z,0
2017-03-18T05:46:47.432Z,0
2017-03-18T05:47:19.694Z,0
2017-03-18T05:47:51.937Z,0
2017-03-18T05:48:24.205Z,0
2017-03-18T05:48:56.488Z,0
2017-03-18T05:49:28.752Z,0
2017-03-18T05:50:01.534Z,0
2017-03-18T05:50:33.784Z,0
2017-03-18T05:51:06.040Z,0
2017-03-18T05:51:38.295Z,0
2017-03-18T05:52:10.573Z,0
2017-03-18T05:52:42.856Z,0
2017-03-18T05:53:15.152Z,0
2017-03-18T05:53:47.414Z,0
2017-03-18T05:54:19.644Z,0
2017-03-18T05:54:51.898Z,0
2017-03-18T05:55:24.152Z,0
2017-03-18T05:55:56.504Z,0
2017-03-18T05:56:28.790Z,0
2017-03-18T05:57:01.038Z,0
2017-03-18T05:57:33.270Z,0
2017-03-18T05:58:05.502Z,0
2017-03-18T05:58:38.325Z,0
2017-03-18T05:59:10.649Z,0
2017-03-18T05:59:42.919Z,0
2017-03-18T06:00:15.170Z,0
2017-03-18T06:00:47.444Z,0
2017-03-18T06:01:20.357Z,0
2017-03-18T06:01:52.603Z,0
2017-03-18T06:02:24.862Z,0
2017-03-18T06:02:57.137Z,0
2017-03-18T06:03:30.330Z,0
2017-03-18T06:04:02.595Z,0
2017-03-18T06:04:34.862Z,0
2017-03-18T06:05:07.115Z,5
2017-03-18T06:05:39.386Z,5
2017-03-18T06:06:11.633Z,0
2017-03-18T06:06:43.931Z,0
2017-03-18T06:07:16.178Z,0
2017-03-18T06:07:48.560Z,0
2017-03-18T06:08:21.317Z,0
2017-03-18T06:08:53.585Z,0
2017-03-18T06:09:25.836Z,0
2017-03-18T06:09:58.094Z,0
2017-03-18T06:10:30.988Z,5
2017-03-18T06:11:03.277Z,5
2017-03-18T06:11:35.535Z,5
2017-03-18T06:12:08.493Z,0
2017-03-18T06:12:40.757Z,0
2017-03-18T06:13:13.013Z,0
2017-03-18T06:13:45.282Z,5
2017-03-18T06:14:18.408Z,0
2017-03-18T06:14:50.657Z,0
2017-03-18T06:15:22.909Z,5
2017-03-18T06:15:55.173Z,5
2017-03-18T06:16:27.452Z,5
2017-03-18T06:16:59.698Z,5
2017-03-18T06:17:31.942Z,5
2017-03-18T06:18:04.842Z,5
2017-03-18T06:18:37.104Z,5
2017-03-18T06:19:09.382Z,5
2017-03-18T06:19:41.648Z,5
2017-03-18T06:20:13.902Z,5
2017-03-18T06:20:46.179Z,5
2017-03-18T06:21:18.421Z,5
2017-03-18T06:21:50.704Z,5
2017-03-18T06:22:22.972Z,5
2017-03-18T06:22:55.268Z,0
2017-03-18T06:23:27.520Z,5
2017-03-18T06:23:59.871Z,0
2017-03-18T06:24:32.130Z,0
2017-03-18T06:25:04.378Z,5
2017-03-18T06:25:36.623Z,5
2017-03-18T06:26:08.890Z,5
2017-03-18T06:26:41.131Z,5
2017-03-18T06:27:13.966Z,5
2017-03-18T06:27:46.220Z,5
2017-03-18T06:28:18.466Z,5
2017-03-18T06:28:50.736Z,5
2017-03-18T06:29:23.011Z,5
2017-03-18T06:29:55.266Z,5
2017-03-18T06:30:27.518Z,5
2017-03-18T06:30:59.778Z,5
2017-03-18T06:31:32.021Z,5
2017-03-18T06:32:04.323Z,5
2017-03-18T06:32:36.637Z,5
2017-03-18T06:33:08.954Z,5
2017-03-18T06:33:41.310Z,5
2017-03-18T06:34:13.638Z,5
2017-03-18T06:34:45.943Z,10
2017-03-18T06:35:18.248Z,5
2017-03-18T06:35:50.580Z,5
2017-03-18T06:36:22.913Z,5
2017-03-18T06:36:55.227Z,5
2017-03-18T06:37:27.555Z,5
2017-03-18T06:37:59.878Z,5
2017-03-18T06:38:32.203Z,5
2017-03-18T06:39:04.536Z,5
2017-03-18T06:39:36.858Z,5
2017-03-18T06:40:09.168Z,10
2017-03-18T06:40:41.468Z,10
2017-03-18T06:41:13.773Z,10
2017-03-18T06:41:46.099Z,5
2017-03-18T06:42:18.383Z,5
2017-03-18T06:42:50.740Z,5
2017-03-18T06:43:23.001Z,10
2017-03-18T06:43:55.883Z,10
2017-03-18T06:44:28.138Z,5
2017-03-18T06:45:00.376Z,5
2017-03-18T06:45:33.561Z,5
2017-03-18T06:46:05.809Z,5
2017-03-18T06:46:38.135Z,5
2017-03-18T06:47:10.388Z,5
2017-03-18T06:47:42.676Z,5
2017-03-18T06:48:15.885Z,10
2017-03-18T06:48:48.183Z,5
2017-03-18T06:49:20.450Z,10
2017-03-18T06:49:52.710Z,10
2017-03-18T06:50:24.962Z,10
2017-03-18T06:50:57.237Z,10
2017-03-18T06:51:30.447Z,10
2017-03-18T06:52:02.748Z,10
2017-03-18T06:52:35.059Z,10
2017-03-18T06:53:07.405Z,10
2017-03-18T06:53:39.758Z,10
2017-03-18T06:54:12.064Z,10
2017-03-18T06:54:44.398Z,10
2017-03-18T06:55:16.701Z,10
2017-03-18T06:55:49.015Z,15
2017-03-18T06:56:21.308Z,15
2017-03-18T06:56:53.608Z,10
2017-03-18T06:57:25.929Z,10
2017-03-18T06:57:58.238Z,15
2017-03-18T06:58:30.551Z,15
2017-03-18T06:59:02.866Z,15
2017-03-18T06:59:35.186Z,15
2017-03-18T07:00:07.511Z,15
2017-03-18T07:00:39.850Z,15
2017-03-18T07:01:12.174Z,15
2017-03-18T07:01:44.500Z,15
2017-03-18T07:02:16.786Z,15
2017-03-18T07:02:49.049Z,15
2017-03-18T07:03:21.327Z,15
2017-03-18T07:03:53.743Z,15
2017-03-18T07:04:26.110Z,15
2017-03-18T07:04:58.367Z,15
2017-03-18T07:05:30.617Z,10
2017-03-18T07:06:02.869Z,10
2017-03-18T07:06:35.137Z,15
2017-03-18T07:07:07.396Z,15
2017-03-18T07:07:39.682Z,15
2017-03-18T07:08:11.959Z,15
2017-03-18T07:08:44.280Z,15
2017-03-18T07:09:17.062Z,15
2017-03-18T07:09:49.306Z,20
2017-03-18T07:10:21.584Z,20
2017-03-18T07:10:53.821Z,15
2017-03-18T07:11:26.063Z,25
2017-03-18T07:11:58.307Z,25
2017-03-18T07:12:30.583Z,20
2017-03-18T07:13:02.908Z,20
2017-03-18T07:13:35.179Z,20
2017-03-18T07:14:07.442Z,20
2017-03-18T07:14:39.697Z,20
2017-03-18T07:15:11.959Z,20
2017-03-18T07:15:44.216Z,25
2017-03-18T07:16:16.494Z,20
2017-03-18T07:16:48.766Z,20
2017-03-18T07:17:21.011Z,20
2017-03-18T07:17:53.264Z,25
2017-03-18T07:18:25.594Z,25
2017-03-18T07:18:58.544Z,20
2017-03-18T07:19:30.809Z,20
2017-03-18T07:20:03.069Z,20
2017-03-18T07:20:35.315Z,15
2017-03-18T07:21:07.562Z,20
2017-03-18T07:21:40.572Z,20
2017-03-18T07:22:12.847Z,25
2017-03-18T07:22:45.959Z,20
2017-03-18T07:23:18.889Z,20
2017-03-18T07:23:51.143Z,25
2017-03-18T07:24:23.403Z,25
2017-03-18T07:24:55.675Z,20
2017-03-18T07:25:28.147Z,25
2017-03-18T07:26:00.408Z,20
2017-03-18T07:26:32.661Z,20
2017-03-18T07:27:04.938Z,20
2017-03-18T07:27:37.224Z,15
2017-03-18T07:28:09.498Z,15
2017-03-18T07:28:41.744Z,15
2017-03-18T07:29:13.985Z,20
2017-03-18T07:29:46.230Z,20
2017-03-18T07:30:18.490Z,25
2017-03-18T07:30:50.719Z,25
2017-03-18T07:31:23.055Z,25
2017-03-18T07:31:55.298Z,20
2017-03-18T07:32:27.566Z,20
2017-03-18T07:32:59.826Z,25
2017-03-18T07:33:32.090Z,30
2017-03-18T07:34:05.010Z,30
2017-03-18T07:34:37.287Z,35
2017-03-18T07:35:09.557Z,35
2017-03-18T07:35:41.801Z,35
2017-03-18T07:36:14.084Z,30
2017-03-18T07:36:46.346Z,25
2017-03-18T07:37:18.634Z,20
2017-03-18T07:37:50.889Z,15
2017-03-18T07:38:23.150Z,20
2017-03-18T07:38:55.405Z,20
2017-03-18T07:39:27.667Z,25
2017-03-18T07:39:59.965Z,25
2017-03-18T07:40:32.228Z,25
2017-03-18T07:41:04.497Z,20
2017-03-18T07:41:36.801Z,25
2017-03-18T07:42:09.047Z,20
2017-03-18T07:42:41.320Z,20
2017-03-18T07:43:13.658Z,20
2017-03-18T07:43:45.932Z,30
2017-03-18T07:44:18.211Z,25
2017-03-18T07:44:50.451Z,25
2017-03-18T07:45:22.738Z,20
2017-03-18T07:45:54.982Z,20
2017-03-18T07:46:27.229Z,30
2017-03-18T07:46:59.521Z,30
2017-03-18T07:47:31.775Z,30
2017-03-18T07:48:04.927Z,35
2017-03-18T07:48:37.212Z,30
2017-03-18T07:49:10.584Z,30
2017-03-18T07:49:42.842Z,40
2017-03-18T07:50:15.090Z,50
2017-03-18T07:50:47.562Z,50
2017-03-18T07:51:19.818Z,50
2017-03-18T07:51:52.123Z,50
2017-03-18T07:52:24.448Z,55
2017-03-18T07:52:56.775Z,55
2017-03-18T07:53:29.106Z,50
2017-03-18T07:54:01.430Z,45
2017-03-18T07:54:33.761Z,45
2017-03-18T07:55:06.079Z,45
2017-03-18T07:55:38.394Z,45